Time;durP1;ratioP1;P1;durP2;ratioP2;P2;SDS_P1;SDS_P2;PMS_P1;PMS_P2;Temp;Humidity;BMP_temperature;BMP_pressure;BME280_temperature;BME280_humidity;BME280_pressure;Samples;Min_cycle;Max_cycle;Signal;HPM_P1;HPM_P2
2021/03/31 00:01:17;;;;;;;;;;;;;;;21.10;38.83;102106.16;3108958;27;115193;-58
2021/03/31 00:02:49;;;;;;;;;;;;;;;21.11;38.83;102101.41;3101761;27;115794;-57
2021/03/31 00:04:20;;;;;;;;;;;;;;;21.11;39.22;102095.78;3090505;28;115074;-58
2021/03/31 00:05:52;;;;;;;;;;;;;;;21.12;39.10;102097.47;3085348;28;114030;-57
2021/03/31 00:07:23;;;;;;;;;;;;;;;21.11;38.99;102109.81;3092228;28;114310;-57
2021/03/31 00:08:54;;;;;;;;;;;;;;;21.12;38.90;102103.09;3088881;28;114383;-58
2021/03/31 00:10:27;;;;;;;;;;;;;;;21.11;39.03;102101.41;3116857;27;115347;-57
2021/03/31 00:11:58;;;;;;;;;;;;;;;21.12;38.91;102109.50;3092493;27;115134;-57
2021/03/31 00:13:29;;;;;;;;;;;;;;;21.10;39.14;102108.97;3091359;28;115190;-57
2021/03/31 00:15:00;;;;;;;;;;;;;;;21.11;39.04;102105.03;3099036;28;115062;-57
2021/03/31 00:16:31;;;;;;;;;;;;;;;21.11;39.37;102107.00;3089227;28;115117;-57
2021/03/31 00:18:04;;;;;;;;;;;;;;;21.10;39.23;102105.31;3096894;28;115182;-57
2021/03/31 00:19:35;;;;;;;;;;;;;;;21.10;39.18;102110.94;3095180;28;115717;-58
2021/03/31 00:21:07;;;;;;;;;;;;;;;21.10;39.30;102108.13;3091726;28;115678;-58
2021/03/31 00:22:38;;;;;;;;;;;;;;;21.10;39.55;102103.34;3111420;27;115881;-58
2021/03/31 00:24:09;;;;;;;;;;;;;;;21.10;39.53;102106.16;3101352;27;116051;-57
2021/03/31 00:25:41;;;;;;;;;;;;;;;21.10;39.80;102105.31;3104706;28;115632;-58
2021/03/31 00:27:13;;;;;;;;;;;;;;;21.09;39.33;102098.84;3095758;28;116542;-58
2021/03/31 00:28:44;;;;;;;;;;;;;;;21.10;39.72;102106.16;3096207;28;116261;-57
2021/03/31 00:30:16;;;;;;;;;;;;;;;21.11;39.98;102098.59;3091195;28;115734;-58
2021/03/31 00:31:49;;;;;;;;;;;;;;;21.11;39.55;102093.81;3091413;28;115746;-57
2021/03/31 00:33:20;;;;;;;;;;;;;;;21.12;39.55;102097.47;3108428;27;116236;-58
2021/03/31 00:34:51;;;;;;;;;;;;;;;21.10;39.90;102092.13;3088705;28;115572;-57
2021/03/31 00:36:22;;;;;;;;;;;;;;;21.12;39.76;102092.66;3098547;28;114575;-58
2021/03/31 00:37:54;;;;;;;;;;;;;;;21.11;39.69;102084.53;3096222;28;115760;-57
2021/03/31 00:39:26;;;;;;;;;;;;;;;21.09;40.13;102087.63;3090359;28;115740;-57
2021/03/31 00:40:58;;;;;;;;;;;;;;;21.11;39.75;102085.38;3093300;28;115671;-57
2021/03/31 00:42:29;;;;;;;;;;;;;;;21.11;39.90;102081.72;3088792;28;113763;-57
2021/03/31 00:44:00;;;;;;;;;;;;;;;21.12;40.10;102083.41;3104210;28;114280;-58
2021/03/31 00:45:31;;;;;;;;;;;;;;;21.13;39.95;102076.66;3114174;27;114124;-58
2021/03/31 00:47:09;;;;;;;;;;;;;;;21.12;39.61;102072.97;3102930;27;113993;-58
2021/03/31 00:48:40;;;;;;;;;;;;;;;21.13;39.71;102073.84;3092561;28;113975;-57
2021/03/31 00:50:13;;;;;;;;;;;;;;;21.11;40.13;102067.66;3099400;28;114326;-58
2021/03/31 00:51:44;;;;;;;;;;;;;;;21.11;40.07;102067.66;3116574;27;114128;-58
2021/03/31 00:53:17;;;;;;;;;;;;;;;21.11;39.94;102071.31;3098930;28;114054;-57
2021/03/31 00:54:48;;;;;;;;;;;;;;;21.09;40.14;102067.09;3108311;27;113992;-58
2021/03/31 00:56:19;;;;;;;;;;;;;;;21.11;39.83;102067.66;3106268;27;114153;-58
2021/03/31 00:57:51;;;;;;;;;;;;;;;21.11;40.40;102056.44;3094028;28;113850;-57
2021/03/31 00:59:22;;;;;;;;;;;;;;;21.11;39.98;102067.66;3091918;28;113997;-57
2021/03/31 01:00:53;;;;;;;;;;;;;;;21.11;40.05;102062.03;3092464;28;113926;-58
2021/03/31 01:02:24;;;;;;;;;;;;;;;21.12;39.99;102055.31;3092901;28;114062;-57
2021/03/31 01:03:55;;;;;;;;;;;;;;;21.13;39.96;102057.00;3091067;28;115363;-58
2021/03/31 01:05:29;;;;;;;;;;;;;;;21.13;39.98;102054.19;3092679;28;117838;-57
2021/03/31 01:07:00;;;;;;;;;;;;;;;21.11;40.07;102053.63;3113077;27;115437;-57
2021/03/31 01:08:31;;;;;;;;;;;;;;;21.11;40.04;102053.63;3099768;27;115320;-58
2021/03/31 01:10:02;;;;;;;;;;;;;;;21.11;40.49;102048.00;3097961;28;115440;-57
2021/03/31 01:11:41;;;;;;;;;;;;;;;21.10;40.18;102051.94;3092563;28;117101;-58
2021/03/31 01:13:23;;;;;;;;;;;;;;;21.09;40.28;102037.03;3091378;28;115010;-57
2021/03/31 01:15:04;;;;;;;;;;;;;;;21.10;40.14;102044.34;3089390;28;115439;-57
2021/03/31 01:16:36;;;;;;;;;;;;;;;21.10;40.47;102047.16;3094714;28;115438;-57
2021/03/31 01:18:09;;;;;;;;;;;;;;;21.11;40.19;102046.03;3096086;28;115135;-57
2021/03/31 01:19:50;;;;;;;;;;;;;;;21.10;40.46;102047.16;3095799;28;113974;-57
2021/03/31 01:21:31;;;;;;;;;;;;;;;21.10;40.36;102040.69;3093049;28;115052;-57
2021/03/31 01:23:11;;;;;;;;;;;;;;;21.13;40.43;102028.91;3090638;28;115695;-58
2021/03/31 01:24:43;;;;;;;;;;;;;;;21.12;40.24;102032.81;3123071;27;115141;-57
2021/03/31 01:26:15;;;;;;;;;;;;;;;21.11;40.50;102037.59;3100850;27;116000;-57
2021/03/31 01:27:46;;;;;;;;;;;;;;;21.10;40.72;102029.44;3094287;28;115630;-57
2021/03/31 01:29:27;;;;;;;;;;;;;;;21.11;40.42;102034.78;3088959;28;115232;-57
2021/03/31 01:31:03;;;;;;;;;;;;;;;21.12;40.62;102030.81;3096251;28;115784;-58
2021/03/31 01:32:44;;;;;;;;;;;;;;;21.12;40.58;102027.22;3086472;28;115127;-58
2021/03/31 01:34:24;;;;;;;;;;;;;;;21.11;40.51;102036.75;3095019;28;115060;-58
2021/03/31 01:35:55;;;;;;;;;;;;;;;21.11;40.40;102028.31;3103708;28;115590;-58
2021/03/31 01:37:33;;;;;;;;;;;;;;;21.10;40.52;102026.63;3110296;27;116391;-57
2021/03/31 01:39:06;;;;;;;;;;;;;;;21.10;40.72;102027.47;3090923;28;116111;-57
2021/03/31 01:40:41;;;;;;;;;;;;;;;21.09;40.67;102025.78;3109921;27;114608;-58
2021/03/31 01:42:14;;;;;;;;;;;;;;;21.12;40.61;102024.41;3103254;27;116125;-58
2021/03/31 01:43:50;;;;;;;;;;;;;;;21.13;40.75;102023.28;3101612;28;115196;-57
2021/03/31 01:45:24;;;;;;;;;;;;;;;21.13;40.50;102017.66;3110854;27;115979;-58
2021/03/31 01:46:57;;;;;;;;;;;;;;;21.10;40.91;102016.25;3091383;28;116408;-58
2021/03/31 01:48:31;;;;;;;;;;;;;;;21.12;40.87;102011.16;3092504;28;114111;-58
2021/03/31 01:50:03;;;;;;;;;;;;;;;21.13;40.80;102012.03;3103159;27;113801;-58
2021/03/31 01:51:35;;;;;;;;;;;;;;;21.13;41.07;102014.84;3092035;28;114390;-58
2021/03/31 01:53:09;;;;;;;;;;;;;;;21.12;40.69;102013.16;3089298;28;113765;-57
2021/03/31 01:54:42;;;;;;;;;;;;;;;21.14;40.64;102016.53;3075044;28;113903;-59
2021/03/31 01:56:14;;;;;;;;;;;;;;;21.12;41.00;102013.16;3107674;28;114048;-58
2021/03/31 01:57:48;;;;;;;;;;;;;;;21.12;40.93;102011.16;3099447;28;113931;-57
2021/03/31 01:59:20;;;;;;;;;;;;;;;21.11;40.85;102014.28;3084889;28;115239;-57
2021/03/31 02:00:52;;;;;;;;;;;;;;;21.11;40.84;102015.13;3084206;28;114854;-58
2021/03/31 02:02:24;;;;;;;;;;;;;;;21.12;41.00;102018.78;3080320;28;113718;-58
2021/03/31 02:03:57;;;;;;;;;;;;;;;21.13;41.07;102009.22;3085440;28;113871;-58
2021/03/31 02:05:29;;;;;;;;;;;;;;;21.13;40.76;102006.41;3094122;28;113775;-58
2021/03/31 02:07:21;;;;;;;;;;;;;;;21.13;40.92;102014.84;3084777;28;113886;-58
2021/03/31 02:08:52;;;;;;;;;;;;;;;21.12;40.91;102011.16;3085225;28;113861;-58
2021/03/31 02:10:26;;;;;;;;;;;;;;;21.12;41.17;102005.53;3089576;28;113751;-58
2021/03/31 02:11:59;;;;;;;;;;;;;;;21.13;41.24;102006.41;3084812;28;115395;-58
2021/03/31 02:13:31;;;;;;;;;;;;;;;21.12;41.31;102005.53;3107409;27;115322;-58
2021/03/31 02:15:03;;;;;;;;;;;;;;;21.13;41.27;102006.41;3093645;27;114133;-57
2021/03/31 02:16:35;;;;;;;;;;;;;;;21.14;41.38;102003.31;3096619;28;115313;-58
2021/03/31 02:18:07;;;;;;;;;;;;;;;21.13;41.63;102001.63;3088162;28;114078;-58
2021/03/31 02:19:40;;;;;;;;;;;;;;;21.12;41.54;102004.72;3096402;28;115716;-57
2021/03/31 02:21:12;;;;;;;;;;;;;;;21.13;41.72;101997.97;3099399;28;117024;-58
2021/03/31 02:22:45;;;;;;;;;;;;;;;21.13;41.54;101996.00;3080574;28;115285;-58
2021/03/31 02:24:18;;;;;;;;;;;;;;;21.13;41.84;102001.63;3084893;28;114065;-58
2021/03/31 02:25:49;;;;;;;;;;;;;;;21.11;41.81;101994.59;3085677;28;115291;-58
2021/03/31 02:27:21;;;;;;;;;;;;;;;21.12;41.74;101994.28;3106099;27;115829;-58
2021/03/31 02:28:52;;;;;;;;;;;;;;;21.14;41.78;101988.44;3087265;28;115774;-57
2021/03/31 02:30:26;;;;;;;;;;;;;;;21.12;41.98;101988.66;3104930;27;115054;-58
2021/03/31 02:31:58;;;;;;;;;;;;;;;21.12;41.99;101990.66;3098312;28;115117;-58
2021/03/31 02:33:30;;;;;;;;;;;;;;;21.09;41.74;101988.41;3086144;28;115773;-58
2021/03/31 02:35:01;;;;;;;;;;;;;;;21.10;41.54;101988.13;3082011;28;116507;-58
2021/03/31 02:36:33;;;;;;;;;;;;;;;21.11;42.09;101987.00;3095420;28;116520;-57
2021/03/31 02:38:07;;;;;;;;;;;;;;;21.09;42.51;101988.41;3083662;28;115861;-57
2021/03/31 02:39:39;;;;;;;;;;;;;;;21.10;42.48;101984.47;3100099;28;116184;-57
2021/03/31 02:41:11;;;;;;;;;;;;;;;21.08;42.08;101986.72;3084081;28;115748;-57
2021/03/31 02:42:44;;;;;;;;;;;;;;;21.09;42.14;101979.97;3070055;28;115797;-57
2021/03/31 02:44:16;;;;;;;;;;;;;;;21.10;42.04;101978.84;3073567;28;116131;-57
2021/03/31 02:45:50;;;;;;;;;;;;;;;21.08;42.33;101978.28;3073814;28;115778;-57
2021/03/31 02:47:23;;;;;;;;;;;;;;;21.09;42.45;101983.63;3068739;28;115956;-57
2021/03/31 02:48:54;;;;;;;;;;;;;;;21.09;42.44;101977.16;3079266;28;116028;-57
2021/03/31 02:50:26;;;;;;;;;;;;;;;21.10;42.44;101984.47;3071706;28;115699;-57
2021/03/31 02:51:59;;;;;;;;;;;;;;;21.10;42.71;101984.47;3071691;28;116257;-58
2021/03/31 02:53:30;;;;;;;;;;;;;;;21.09;42.53;101983.63;3076809;28;116625;-58
2021/03/31 02:55:04;;;;;;;;;;;;;;;21.10;42.73;101976.91;3068793;28;113771;-57
2021/03/31 02:56:39;;;;;;;;;;;;;;;21.10;42.56;101976.06;3094273;28;114013;-58
2021/03/31 02:58:10;;;;;;;;;;;;;;;21.11;42.58;101969.31;3078208;28;114342;-58
2021/03/31 02:59:42;;;;;;;;;;;;;;;21.10;42.42;101979.72;3072485;28;114135;-58
2021/03/31 03:01:13;;;;;;;;;;;;;;;21.10;42.49;101976.91;3067921;28;114419;-58
2021/03/31 03:02:45;;;;;;;;;;;;;;;21.11;42.29;101974.94;3070204;28;114048;-58
2021/03/31 03:04:16;;;;;;;;;;;;;;;21.10;42.50;101968.47;3075796;28;113768;-57
2021/03/31 03:05:48;;;;;;;;;;;;;;;21.08;42.96;101967.91;3073080;28;113760;-58
2021/03/31 03:07:20;;;;;;;;;;;;;;;21.08;42.95;101979.13;3073069;28;113894;-57
2021/03/31 03:08:54;;;;;;;;;;;;;;;21.10;42.58;101967.63;3070278;28;114578;-57
2021/03/31 03:10:25;;;;;;;;;;;;;;;21.08;42.86;101964.25;3073026;28;113937;-57
2021/03/31 03:11:57;;;;;;;;;;;;;;;21.07;42.76;101955.00;3096142;28;114301;-57
2021/03/31 03:13:33;;;;;;;;;;;;;;;21.07;42.50;101959.78;3078993;28;114539;-57
2021/03/31 03:15:04;;;;;;;;;;;;;;;21.07;42.86;101954.16;3075395;28;113852;-56
2021/03/31 03:16:36;;;;;;;;;;;;;;;21.06;42.46;101961.75;3091014;28;115076;-57
2021/03/31 03:18:08;;;;;;;;;;;;;;;21.07;43.05;101954.16;3080182;28;115078;-57
2021/03/31 03:19:39;;;;;;;;;;;;;;;21.06;42.91;101958.09;3067862;28;115685;-58
2021/03/31 03:21:11;;;;;;;;;;;;;;;21.06;42.74;101952.47;3068001;28;115169;-57
2021/03/31 03:22:43;;;;;;;;;;;;;;;21.09;42.78;101954.69;3068021;28;115181;-58
2021/03/31 03:24:15;;;;;;;;;;;;;;;21.07;43.00;101955.00;3072735;28;115264;-57
2021/03/31 03:25:47;;;;;;;;;;;;;;;21.08;42.88;101947.38;3095966;28;115659;-57
2021/03/31 03:27:18;;;;;;;;;;;;;;;21.07;42.95;101952.19;3080515;28;115503;-58
2021/03/31 03:28:50;;;;;;;;;;;;;;;21.07;42.57;101955.00;3069720;28;115883;-58
2021/03/31 03:30:21;;;;;;;;;;;;;;;21.07;42.93;101952.19;3073065;28;114344;-57
2021/03/31 03:31:54;;;;;;;;;;;;;;;21.08;42.67;101953.00;3096124;28;115091;-58
2021/03/31 03:33:26;;;;;;;;;;;;;;;21.08;42.96;101950.19;3075278;28;114013;-58
2021/03/31 03:34:57;;;;;;;;;;;;;;;21.08;42.90;101947.38;3084438;28;115213;-58
2021/03/31 03:36:28;;;;;;;;;;;;;;;21.08;42.75;101950.19;3078838;28;114895;-57
2021/03/31 03:37:59;;;;;;;;;;;;;;;21.09;42.64;101946.25;3072222;28;115639;-57
2021/03/31 03:39:30;;;;;;;;;;;;;;;21.10;42.58;101945.13;3072260;28;115973;-58
2021/03/31 03:41:05;;;;;;;;;;;;;;;21.08;43.08;101936.13;3085414;28;116172;-57
2021/03/31 03:42:37;;;;;;;;;;;;;;;21.07;42.93;101940.09;3085804;28;114615;-58
2021/03/31 03:44:09;;;;;;;;;;;;;;;21.08;42.95;101930.53;3081289;28;114498;-58
2021/03/31 03:45:42;;;;;;;;;;;;;;;21.08;42.54;101934.19;3095830;28;115860;-58
2021/03/31 03:47:13;;;;;;;;;;;;;;;21.08;42.70;101933.34;3083314;28;115817;-57
2021/03/31 03:48:44;;;;;;;;;;;;;;;21.07;42.96;101934.47;3103048;27;115869;-57
2021/03/31 03:50:16;;;;;;;;;;;;;;;21.08;42.76;101925.75;3091891;27;117877;-58
2021/03/31 03:51:47;;;;;;;;;;;;;;;21.09;42.71;101929.41;3080715;28;115815;-57
2021/03/31 03:53:19;;;;;;;;;;;;;;;21.07;42.96;101928.88;3084760;28;115729;-57
2021/03/31 03:54:51;;;;;;;;;;;;;;;21.07;42.88;101929.72;3111147;27;115694;-56
2021/03/31 03:56:23;;;;;;;;;;;;;;;21.08;42.81;101924.91;3092372;28;115984;-57
2021/03/31 03:57:54;;;;;;;;;;;;;;;21.09;43.13;101920.97;3109266;27;115833;-58
2021/03/31 03:59:27;;;;;;;;;;;;;;;21.09;42.93;101935.03;3094304;27;115802;-57
2021/03/31 04:00:58;;;;;;;;;;;;;;;21.08;42.67;101931.38;3081715;28;113931;-57
2021/03/31 04:02:29;;;;;;;;;;;;;;;21.08;42.59;101936.13;3081167;28;113836;-58
2021/03/31 04:04:00;;;;;;;;;;;;;;;21.09;43.00;101932.22;3089512;28;113908;-57
2021/03/31 04:05:31;;;;;;;;;;;;;;;21.09;42.56;101933.06;3087831;28;113831;-57
2021/03/31 04:07:03;;;;;;;;;;;;;;;21.09;42.73;101927.44;3084798;28;114195;-57
2021/03/31 04:08:34;;;;;;;;;;;;;;;21.08;43.10;101924.91;3080952;28;113974;-58
2021/03/31 04:10:07;;;;;;;;;;;;;;;21.08;42.86;101928.56;3104516;27;113776;-57
2021/03/31 04:11:39;;;;;;;;;;;;;;;21.08;42.92;101930.53;3085166;28;114952;-57
2021/03/31 04:13:11;;;;;;;;;;;;;;;21.06;42.82;101928.03;3083330;28;113826;-58
2021/03/31 04:14:42;;;;;;;;;;;;;;;21.08;42.81;101922.09;3081220;28;113888;-57
2021/03/31 04:16:14;;;;;;;;;;;;;;;21.08;43.10;101919.28;3088286;28;113769;-58
2021/03/31 04:17:47;;;;;;;;;;;;;;;21.08;42.97;101919.28;3078198;28;113819;-58
2021/03/31 04:19:18;;;;;;;;;;;;;;;21.07;42.84;101914.81;3087391;28;114254;-58
2021/03/31 04:20:51;;;;;;;;;;;;;;;21.06;42.86;101913.97;3087685;28;113863;-58
2021/03/31 04:22:22;;;;;;;;;;;;;;;21.07;42.81;101912.00;3067258;28;115336;-58
2021/03/31 04:23:53;;;;;;;;;;;;;;;21.05;42.99;101914.25;3102415;27;115083;-58
2021/03/31 04:25:25;;;;;;;;;;;;;;;21.06;42.95;101915.94;3090255;27;115474;-58
2021/03/31 04:26:59;;;;;;;;;;;;;;;21.06;43.15;101915.94;3103799;28;115038;-58
2021/03/31 04:28:30;;;;;;;;;;;;;;;21.06;42.88;101913.13;3087358;27;114092;-58
2021/03/31 04:30:04;;;;;;;;;;;;;;;21.05;43.00;101903.84;3079677;28;115115;-58
2021/03/31 04:31:36;;;;;;;;;;;;;;;21.04;43.10;101904.97;3095342;28;115029;-57
2021/03/31 04:33:10;;;;;;;;;;;;;;;21.05;43.04;101903.00;3084763;28;114677;-57
2021/03/31 04:34:41;;;;;;;;;;;;;;;21.03;43.11;101900.47;3097356;28;114292;-57
2021/03/31 04:36:13;;;;;;;;;;;;;;;21.05;43.22;101900.19;3071460;28;117338;-58
2021/03/31 04:37:44;;;;;;;;;;;;;;;21.03;43.56;101891.22;3084471;28;115097;-58
2021/03/31 04:39:16;;;;;;;;;;;;;;;21.02;43.29;101897.97;3080289;28;115213;-57
2021/03/31 04:40:48;;;;;;;;;;;;;;;21.04;43.08;101892.88;3088799;28;115234;-57
2021/03/31 04:42:19;;;;;;;;;;;;;;;21.03;43.06;101899.66;3096999;28;115383;-58
2021/03/31 04:43:50;;;;;;;;;;;;;;;21.00;43.40;101895.44;3107769;28;115576;-58
2021/03/31 04:45:21;;;;;;;;;;;;;;;21.02;43.16;101895.16;3101828;28;115806;-57
2021/03/31 04:46:52;;;;;;;;;;;;;;;21.03;43.11;101889.25;3087872;28;116378;-57
2021/03/31 04:48:24;;;;;;;;;;;;;;;21.04;43.08;101896.53;3093608;28;115785;-58
2021/03/31 04:49:55;;;;;;;;;;;;;;;21.03;43.13;101894.84;3098938;28;115912;-58
2021/03/31 04:51:26;;;;;;;;;;;;;;;21.02;43.44;101889.56;3097774;28;115830;-58
2021/03/31 04:52:57;;;;;;;;;;;;;;;21.02;43.12;101889.56;3088409;28;115743;-58
2021/03/31 04:54:28;;;;;;;;;;;;;;;21.01;43.07;101890.66;3085694;28;115953;-58
2021/03/31 04:55:59;;;;;;;;;;;;;;;21.03;43.13;101891.22;3083236;28;115746;-56
2021/03/31 04:57:30;;;;;;;;;;;;;;;21.02;43.44;101889.56;3103200;28;116176;-57
2021/03/31 04:59:01;;;;;;;;;;;;;;;20.99;43.53;101890.94;3122270;27;116293;-58
2021/03/31 05:00:33;;;;;;;;;;;;;;;21.01;43.44;101883.09;3109410;27;116206;-57
2021/03/31 05:02:04;;;;;;;;;;;;;;;21.00;43.57;101892.63;3089820;28;115927;-58
2021/03/31 05:03:35;;;;;;;;;;;;;;;21.01;43.39;101890.66;3089533;28;116252;-58
2021/03/31 05:05:08;;;;;;;;;;;;;;;21.00;43.53;101886.16;3084195;28;114195;-57
2021/03/31 05:06:39;;;;;;;;;;;;;;;21.01;43.63;101887.84;3097869;28;114222;-58
2021/03/31 05:08:10;;;;;;;;;;;;;;;21.00;43.76;101884.22;3107201;28;113759;-58
2021/03/31 05:09:41;;;;;;;;;;;;;;;21.02;43.57;101889.56;3089138;28;113910;-58
2021/03/31 05:11:13;;;;;;;;;;;;;;;21.03;43.88;101878.00;3086233;28;114217;-58
2021/03/31 05:12:45;;;;;;;;;;;;;;;21.02;43.63;101887.59;3079862;28;114293;-58
2021/03/31 05:14:18;;;;;;;;;;;;;;;21.03;43.65;101882.81;3084951;28;113758;-57
2021/03/31 05:15:49;;;;;;;;;;;;;;;21.01;43.42;101885.91;3109237;28;114539;-57
2021/03/31 05:17:21;;;;;;;;;;;;;;;21.01;43.59;101883.09;3086317;28;114131;-57
2021/03/31 05:18:52;;;;;;;;;;;;;;;21.01;43.96;101880.28;3100165;28;114209;-57
2021/03/31 05:20:23;;;;;;;;;;;;;;;21.02;43.69;101878.31;3073251;28;114184;-58
2021/03/31 05:21:54;;;;;;;;;;;;;;;21.01;43.79;101877.47;3084541;28;114480;-57
2021/03/31 05:23:25;;;;;;;;;;;;;;;21.03;43.97;101885.63;3083574;28;114445;-58
2021/03/31 05:24:56;;;;;;;;;;;;;;;21.01;43.47;101882.25;3085287;28;113916;-58
2021/03/31 05:26:27;;;;;;;;;;;;;;;21.03;43.58;101880.81;3117931;27;113966;-57
2021/03/31 05:27:58;;;;;;;;;;;;;;;21.01;43.55;101880.28;3104517;27;115572;-57
2021/03/31 05:29:31;;;;;;;;;;;;;;;21.01;43.66;101880.28;3119838;27;114574;-57
2021/03/31 05:31:02;;;;;;;;;;;;;;;21.01;43.81;101876.63;3103240;27;116597;-57
2021/03/31 05:32:33;;;;;;;;;;;;;;;21.02;43.63;101879.16;3098387;28;115902;-57
2021/03/31 05:34:04;;;;;;;;;;;;;;;21.01;43.87;101879.44;3116674;27;116142;-57
2021/03/31 05:35:35;;;;;;;;;;;;;;;21.01;43.85;101880.28;3088105;28;115230;-57
2021/03/31 05:37:07;;;;;;;;;;;;;;;21.00;44.07;101878.59;3093887;28;115605;-58
2021/03/31 05:38:38;;;;;;;;;;;;;;;21.01;44.34;101874.66;3119892;27;115339;-57
2021/03/31 05:40:09;;;;;;;;;;;;;;;21.02;44.23;101872.69;3111366;27;115109;-57
2021/03/31 05:41:41;;;;;;;;;;;;;;;21.02;44.05;101875.50;3100269;28;115387;-57
2021/03/31 05:43:12;;;;;;;;;;;;;;;21.02;44.12;101869.88;3092468;28;115073;-57
2021/03/31 05:44:44;;;;;;;;;;;;;;;21.03;44.50;101871.56;3086249;28;115277;-57
2021/03/31 05:46:15;;;;;;;;;;;;;;;21.02;44.47;101869.88;3097239;28;115636;-57
2021/03/31 05:47:46;;;;;;;;;;;;;;;21.02;44.09;101869.88;3093283;28;115422;-57
2021/03/31 05:49:18;;;;;;;;;;;;;;;21.01;44.14;101857.78;3097035;28;116901;-58
2021/03/31 05:50:49;;;;;;;;;;;;;;;21.00;44.33;101861.72;3099791;28;114817;-57
2021/03/31 05:52:21;;;;;;;;;;;;;;;21.03;44.21;101863.13;3118608;27;115837;-57
2021/03/31 05:53:52;;;;;;;;;;;;;;;21.02;44.47;101865.09;3113190;27;115748;-57
2021/03/31 05:55:24;;;;;;;;;;;;;;;21.02;44.35;101864.25;3099030;28;116128;-58
2021/03/31 05:56:55;;;;;;;;;;;;;;;21.08;44.90;101863.06;3105426;28;115723;-57
2021/03/31 05:58:26;;;;;;;;;;;;;;;21.08;44.89;101868.69;3110125;27;115683;-57
2021/03/31 05:59:58;;;;;;;;;;;;;;;21.11;45.08;101862.53;3093546;28;115853;-57
2021/03/31 06:01:32;;;;;;;;;;;;;;;21.12;45.05;101858.59;3074215;28;115686;-57
2021/03/31 06:03:05;;;;;;;;;;;;;;;21.14;44.98;101854.38;3083759;28;115788;-57
2021/03/31 06:04:36;;;;;;;;;;;;;;;21.16;45.27;101859.72;3105976;27;115742;-57
2021/03/31 06:06:08;;;;;;;;;;;;;;;21.19;44.97;101857.16;3090990;27;116186;-57
2021/03/31 06:07:41;;;;;;;;;;;;;;;21.22;45.06;101855.72;3087035;28;116127;-57
2021/03/31 06:09:12;;;;;;;;;;;;;;;21.26;45.01;101856.81;3100210;28;116524;-57
2021/03/31 06:10:43;;;;;;;;;;;;;;;21.29;45.02;101859.91;3090194;28;114212;-58
2021/03/31 06:12:14;;;;;;;;;;;;;;;21.34;45.21;101859.03;3092889;28;113974;-57
2021/03/31 06:13:49;;;;;;;;;;;;;;;21.38;45.87;101854.50;3087953;28;114012;-58
2021/03/31 06:15:31;;;;;;;;;;;;;;;21.43;45.72;101859.25;3095411;28;114096;-58
2021/03/31 06:17:05;;;;;;;;;;;;;;;21.47;45.79;101855.56;3084865;28;113980;-58
2021/03/31 06:18:36;;;;;;;;;;;;;;;21.52;45.78;101857.50;3084634;28;114321;-57
2021/03/31 06:20:08;;;;;;;;;;;;;;;21.57;45.54;101846.22;3085799;28;113792;-57
2021/03/31 06:21:39;;;;;;;;;;;;;;;21.63;45.78;101847.81;3085197;28;113812;-58
2021/03/31 06:24:46;;;;;;;;;;;;;;;21.73;45.52;101845.78;3116321;27;113840;-57
2021/03/31 06:26:18;;;;;;;;;;;;;;;21.80;45.37;101853.03;3080310;28;113761;-58
2021/03/31 06:27:51;;;;;;;;;;;;;;;21.84;44.79;101843.72;3079770;28;113779;-57
2021/03/31 06:29:22;;;;;;;;;;;;;;;21.90;44.62;101841.66;3084923;28;114349;-58
2021/03/31 06:31:04;;;;;;;;;;;;;;;21.97;45.03;101847.84;3092811;28;113747;-58
2021/03/31 06:32:36;;;;;;;;;;;;;;;22.02;44.34;101845.81;3094834;28;115095;-58
2021/03/31 06:34:09;;;;;;;;;;;;;;;22.07;45.07;101848.59;3114073;27;116266;-57
2021/03/31 06:35:40;;;;;;;;;;;;;;;22.12;45.32;101844.88;3086506;28;114227;-58
2021/03/31 06:37:21;;;;;;;;;;;;;;;22.20;44.70;101841.41;3082236;28;115358;-58
2021/03/31 06:38:53;;;;;;;;;;;;;;;22.31;44.29;101839.31;3086305;28;114093;-58
2021/03/31 06:40:26;;;;;;;;;;;;;;;22.36;44.04;101844.88;3110037;27;115452;-57
2021/03/31 06:41:59;;;;;;;;;;;;;;;22.40;43.86;101835.53;3097966;28;114872;-58
2021/03/31 06:43:37;;;;;;;;;;;;;;;22.44;43.70;101839.44;3085484;28;115304;-57
2021/03/31 06:46:48;;;;;;;;;;;;;;;22.53;43.05;101843.25;3085131;28;115140;-57
2021/03/31 06:48:22;;;;;;;;;;;;;;;22.59;43.10;101844.88;3100306;28;115099;-57
2021/03/31 06:49:54;;;;;;;;;;;;;;;22.61;42.74;101845.44;3097627;28;115644;-58
2021/03/31 06:51:26;;;;;;;;;;;;;;;22.66;42.87;101844.53;3091737;28;115037;-57
2021/03/31 06:52:58;;;;;;;;;;;;;;;22.70;42.40;101847.59;3090705;28;115217;-57
2021/03/31 06:54:39;;;;;;;;;;;;;;;22.73;42.15;101841.38;3096923;28;115763;-57
2021/03/31 06:56:10;;;;;;;;;;;;;;;22.77;42.22;101848.06;3096375;28;115773;-57
2021/03/31 06:57:41;;;;;;;;;;;;;;;22.79;42.20;101849.47;3088953;28;116175;-58
2021/03/31 06:59:25;;;;;;;;;;;;;;;22.81;41.89;101849.97;3084253;28;116235;-59
2021/03/31 07:00:56;;;;;;;;;;;;;;;22.82;41.83;101848.84;3096040;28;115846;-57
2021/03/31 07:02:29;;;;;;;;;;;;;;;22.83;41.81;101844.91;3100288;28;115901;-57
2021/03/31 07:04:02;;;;;;;;;;;;;;;22.82;41.63;101845.19;3100429;28;114505;-56
2021/03/31 07:05:34;;;;;;;;;;;;;;;22.83;41.75;101841.22;3086310;28;115772;-58
2021/03/31 07:07:07;;;;;;;;;;;;;;;22.84;41.81;101840.09;3085322;28;115898;-57
2021/03/31 07:08:39;;;;;;;;;;;;;;;22.83;40.84;101844.06;3085774;28;116257;-59
2021/03/31 07:10:11;;;;;;;;;;;;;;;22.75;40.01;101839.94;3079958;28;116577;-58
2021/03/31 07:11:43;;;;;;;;;;;;;;;22.62;38.82;101835.81;3102868;28;118027;-58
2021/03/31 07:13:25;;;;;;;;;;;;;;;22.59;37.55;101839.25;3089351;28;116184;-57
2021/03/31 07:14:56;;;;;;;;;;;;;;;22.54;37.09;101841.28;3078935;28;115845;-59
2021/03/31 07:16:28;;;;;;;;;;;;;;;22.46;36.76;101839.97;3095850;28;116623;-58
2021/03/31 07:18:01;;;;;;;;;;;;;;;22.45;36.64;101834.63;3110099;27;113734;-58
2021/03/31 07:19:33;;;;;;;;;;;;;;;22.50;36.76;101834.56;3090869;27;114426;-58
2021/03/31 07:21:13;;;;;;;;;;;;;;;22.57;37.36;101835.06;3081948;28;114213;-59
2021/03/31 07:22:44;;;;;;;;;;;;;;;22.59;37.38;101829.97;3089756;28;113930;-59
2021/03/31 07:24:15;;;;;;;;;;;;;;;22.63;37.75;101829.06;3092177;28;114004;-58
2021/03/31 07:25:47;;;;;;;;;;;;;;;22.65;37.45;101827.91;3110580;27;114520;-59
2021/03/31 07:27:19;;;;;;;;;;;;;;;22.66;37.87;101838.06;3096556;27;113928;-58
2021/03/31 07:28:50;;;;;;;;;;;;;;;22.67;37.85;101831.28;3086067;28;113842;-59
2021/03/31 07:30:23;;;;;;;;;;;;;;;22.67;37.78;101834.91;3092272;28;113929;-59
2021/03/31 07:32:10;;;;;;;;;;;;;;;22.68;37.92;101827.31;3084722;28;114037;-58
2021/03/31 07:33:42;;;;;;;;;;;;;;;22.69;38.07;101831.81;3087478;28;114031;-59
2021/03/31 07:35:14;;;;;;;;;;;;;;;22.69;37.78;101841.09;3087648;28;113993;-58
2021/03/31 07:36:47;;;;;;;;;;;;;;;22.70;38.08;101836.34;3104966;27;113851;-59
2021/03/31 07:38:19;;;;;;;;;;;;;;;22.68;38.02;101832.94;3092181;28;113768;-58
2021/03/31 07:39:51;;;;;;;;;;;;;;;22.69;38.01;101835.47;3105227;27;115175;-59
2021/03/31 07:41:22;;;;;;;;;;;;;;;22.70;37.75;101840.00;3093462;27;114239;-58
2021/03/31 07:43:03;;;;;;;;;;;;;;;22.68;37.92;101835.75;3096862;28;115266;-59
2021/03/31 07:44:35;;;;;;;;;;;;;;;22.69;38.22;101820.53;3084580;28;115113;-59
2021/03/31 07:46:06;;;;;;;;;;;;;;;22.69;37.74;101831.81;3105149;27;115147;-58
2021/03/31 07:47:38;;;;;;;;;;;;;;;22.69;37.83;101829.00;3088780;28;115093;-58
2021/03/31 07:49:11;;;;;;;;;;;;;;;22.67;37.86;101828.47;3092291;28;114973;-59
2021/03/31 07:50:42;;;;;;;;;;;;;;;22.68;37.86;101830.13;3088508;28;113943;-58
2021/03/31 07:52:13;;;;;;;;;;;;;;;22.68;37.74;101828.16;3108601;27;115506;-59
2021/03/31 07:53:46;;;;;;;;;;;;;;;22.67;37.73;101831.28;3099800;28;113937;-58